createdAt,value
2018-07-25T00:01:02.986Z,66.19
2018-07-25T00:03:35.029Z,66.27
2018-07-25T00:06:08.503Z,66.46
2018-07-25T00:08:37.390Z,66.34
2018-07-25T00:11:06.131Z,66.26
2018-07-25T00:13:34.965Z,66.52
2018-07-25T00:16:04.006Z,66.45
2018-07-25T00:18:35.474Z,66.34
2018-07-25T00:21:08.648Z,66.25
2018-07-25T00:23:39.880Z,66.52
2018-07-25T00:26:08.917Z,66.63
2018-07-25T00:28:37.806Z,66.91
2018-07-25T00:31:06.592Z,66.87
2018-07-25T00:33:35.578Z,66.83
2018-07-25T00:36:11.784Z,66.72
2018-07-25T00:38:43.956Z,66.82
2018-07-25T00:41:15.547Z,66.81
2018-07-25T00:43:44.371Z,66.89
2018-07-25T00:46:13.159Z,66.69
2018-07-25T00:48:41.971Z,66.61
2018-07-25T00:51:11.170Z,66.79
2018-07-25T00:53:44.905Z,66.76
2018-07-25T00:56:15.551Z,66.71
2018-07-25T00:58:48.136Z,66.94
2018-07-25T01:01:17.083Z,66.61
2018-07-25T01:03:45.926Z,66.69
2018-07-25T01:06:14.834Z,66.52
2018-07-25T01:08:43.950Z,66.76
2018-07-25T01:11:19.836Z,66.92
2018-07-25T01:13:51.840Z,66.93
2018-07-25T01:16:27.787Z,66.95
2018-07-25T01:18:56.628Z,67.03
2018-07-25T01:21:25.523Z,66.75
2018-07-25T01:23:54.497Z,66.96
2018-07-25T01:26:25.266Z,67.24
2018-07-25T01:28:56.500Z,67.24
2018-07-25T01:31:28.879Z,67.04
2018-07-25T01:34:00.411Z,67.19
2018-07-25T01:36:29.261Z,67.27
2018-07-25T01:38:58.109Z,67.22
2018-07-25T01:41:27.006Z,67.47
2018-07-25T01:43:59.622Z,67.54
2018-07-25T01:46:31.942Z,67.47
2018-07-25T01:49:04.503Z,67.38
2018-07-25T01:51:36.290Z,67.49
2018-07-25T01:54:05.169Z,67.81
2018-07-25T01:56:34.987Z,67.42
2018-07-25T01:59:03.930Z,67.57
2018-07-25T02:01:36.807Z,67.44
2018-07-25T02:04:07.763Z,67.50
2018-07-25T02:06:39.686Z,67.40
2018-07-25T02:09:12.468Z,67.50
2018-07-25T02:11:41.399Z,67.40
2018-07-25T02:14:10.409Z,67.61
2018-07-25T02:16:39.440Z,67.62
2018-07-25T02:19:11.729Z,67.47
2018-07-25T02:21:44.323Z,67.57
2018-07-25T02:24:15.437Z,67.51
2018-07-25T02:26:47.195Z,67.54
2018-07-25T02:29:16.110Z,67.66
2018-07-25T02:31:45.058Z,67.37
2018-07-25T02:34:19.181Z,67.61
2018-07-25T02:36:52.498Z,67.47
2018-07-25T02:39:23.305Z,67.46
2018-07-25T02:41:59.549Z,67.63
2018-07-25T02:44:28.435Z,67.61
2018-07-25T02:46:57.357Z,67.52
2018-07-25T02:49:26.196Z,67.60
2018-07-25T02:51:55.617Z,67.55
2018-07-25T02:54:28.710Z,67.70
2018-07-25T02:57:00.416Z,67.71
2018-07-25T02:59:32.806Z,67.82
2018-07-25T03:02:01.753Z,67.64
2018-07-25T03:04:30.606Z,67.52
2018-07-25T03:06:59.432Z,67.82
2018-07-25T03:09:28.639Z,67.74
2018-07-25T03:11:58.949Z,67.89
2018-07-25T03:14:30.890Z,68.13
2018-07-25T03:17:02.803Z,67.99
2018-07-25T03:19:31.799Z,68.33
2018-07-25T03:22:00.693Z,68.14
2018-07-25T03:24:29.606Z,68.25
2018-07-25T03:26:58.852Z,68.25
2018-07-25T03:29:31.893Z,68.36
2018-07-25T03:32:06.911Z,68.19
2018-07-25T03:34:40.822Z,68.44
2018-07-25T03:37:09.738Z,68.36
2018-07-25T03:39:38.866Z,68.38
2018-07-25T03:42:07.826Z,68.59
2018-07-25T03:44:38.241Z,68.63
2018-07-25T03:47:13.074Z,68.72
2018-07-25T03:49:51.976Z,68.69
2018-07-25T03:52:28.012Z,68.85
2018-07-25T03:54:56.826Z,69.09
2018-07-25T03:57:25.642Z,69.08
2018-07-25T03:59:54.501Z,69.18
2018-07-25T04:02:29.021Z,69.19
2018-07-25T04:05:00.981Z,69.05
2018-07-25T04:07:32.700Z,69.15
2018-07-25T04:10:04.662Z,69.31
2018-07-25T04:12:33.627Z,69.25
2018-07-25T04:15:02.422Z,69.50
2018-07-25T04:17:36.411Z,69.22
2018-07-25T04:20:14.914Z,69.39
2018-07-25T04:22:48.466Z,69.43
2018-07-25T04:25:23.072Z,69.44
2018-07-25T04:27:53.681Z,69.52
2018-07-25T04:30:23.332Z,69.60
2018-07-25T04:32:52.194Z,69.65
2018-07-25T04:35:21.194Z,69.66
2018-07-25T04:37:52.958Z,69.51
2018-07-25T04:40:24.243Z,69.81
2018-07-25T04:42:56.446Z,69.66
2018-07-25T04:45:25.404Z,69.85
2018-07-25T04:47:54.174Z,69.87
2018-07-25T04:50:23.066Z,69.98
2018-07-25T04:52:52.273Z,70.18
2018-07-25T04:55:29.124Z,69.95
2018-07-25T04:58:13.084Z,70.13
2018-07-25T05:00:54.979Z,70.12
2018-07-25T05:03:23.843Z,70.31
2018-07-25T05:05:52.666Z,70.33
2018-07-25T05:08:21.574Z,70.23
2018-07-25T05:10:55.612Z,70.63
2018-07-25T05:13:28.079Z,70.49
2018-07-25T05:16:03.799Z,70.41
2018-07-25T05:18:36.492Z,70.55
2018-07-25T05:21:05.376Z,70.48
2018-07-25T05:23:34.259Z,70.39
2018-07-25T05:26:03.324Z,70.65
2018-07-25T05:28:36.951Z,70.42
2018-07-25T05:31:07.804Z,70.77
2018-07-25T05:33:39.951Z,70.83
2018-07-25T05:36:12.904Z,70.77
2018-07-25T05:38:41.846Z,70.97
2018-07-25T05:41:10.718Z,71.05
2018-07-25T05:43:39.672Z,70.93
2018-07-25T05:46:13.104Z,71.05
2018-07-25T05:48:44.479Z,71.23
2018-07-25T05:51:16.497Z,71.10
2018-07-25T05:53:46.755Z,70.85
2018-07-25T05:56:15.679Z,70.94
2018-07-25T05:58:44.623Z,71.17
2018-07-25T06:01:13.690Z,70.94
2018-07-25T06:03:46.866Z,71.14
2018-07-25T06:06:19.973Z,71.10
2018-07-25T06:08:52.102Z,71.35
2018-07-25T06:11:20.995Z,71.19
2018-07-25T06:13:49.844Z,71.22
2018-07-25T06:16:19.229Z,71.61
2018-07-25T06:18:48.799Z,71.45
2018-07-25T06:21:27.077Z,71.53
2018-07-25T06:24:03.004Z,71.49
2018-07-25T06:26:37.035Z,71.67
2018-07-25T06:29:05.858Z,71.60
2018-07-25T06:31:34.743Z,71.88
2018-07-25T06:34:03.520Z,71.85
2018-07-25T06:36:32.943Z,71.68
2018-07-25T06:39:05.440Z,71.75
2018-07-25T06:41:40.116Z,71.60
2018-07-25T06:47:00.119Z,71.69
2018-07-25T06:49:28.997Z,71.42
2018-07-25T06:51:57.955Z,71.67
2018-07-25T06:54:32.216Z,71.49
2018-07-25T06:57:11.070Z,71.65
2018-07-25T06:59:47.071Z,71.27
2018-07-25T07:02:24.089Z,71.44
2018-07-25T07:04:53.065Z,71.18
2018-07-25T07:07:22.105Z,71.24
2018-07-25T07:09:51.001Z,71.24
2018-07-25T07:12:39.949Z,71.14
2018-07-25T07:18:12.578Z,71.21
2018-07-25T07:20:41.735Z,71.10
2018-07-25T07:23:11.698Z,71.31
2018-07-25T07:25:40.672Z,71.21
2018-07-25T07:28:10.243Z,71.02
2018-07-25T07:39:48.443Z,71.06
2018-07-25T07:42:17.374Z,70.96
2018-07-25T07:44:46.518Z,70.97
2018-07-25T07:47:16.909Z,70.96
2018-07-25T07:49:51.993Z,70.79
2018-07-25T07:52:23.508Z,70.67
2018-07-25T07:54:52.381Z,70.75
2018-07-25T07:57:21.187Z,70.71
2018-07-25T07:59:50.094Z,70.67
2018-07-25T08:02:19.097Z,70.60
2018-07-25T08:05:03.215Z,70.45
2018-07-25T08:07:40.705Z,70.33
2018-07-25T08:10:35.429Z,70.19
2018-07-25T08:13:04.168Z,70.09
2018-07-25T08:15:33.068Z,69.59
2018-07-25T08:18:01.979Z,69.30
2018-07-25T08:20:31.111Z,69.16
2018-07-25T08:23:03.604Z,68.46
2018-07-25T08:35:35.463Z,67.03
2018-07-25T09:27:06.297Z,61.99
2018-07-25T09:29:49.236Z,61.42
2018-07-25T09:44:44.888Z,60.35
2018-07-25T10:00:55.739Z,58.02
2018-07-25T10:03:25.504Z,57.28
2018-07-25T10:18:05.624Z,55.05
2018-07-25T10:20:35.071Z,54.84
2018-07-25T10:35:16.618Z,50.44
2018-07-25T10:37:47.581Z,50.95
2018-07-25T10:52:34.356Z,47.25
2018-07-25T10:55:13.304Z,47.07
2018-07-25T10:57:47.035Z,44.87
2018-07-25T11:09:16.406Z,41.77
2018-07-25T11:11:45.366Z,41.21
2018-07-25T11:14:14.557Z,41.16
2018-07-25T11:17:00.345Z,40.56
2018-07-25T11:25:24.615Z,39.84
2018-07-25T11:27:59.112Z,40.21
2018-07-25T11:30:28.647Z,39.62
2018-07-25T11:33:00.305Z,39.16
2018-07-25T11:44:45.529Z,39.64
2018-07-25T11:47:19.107Z,38.64
2018-07-25T12:01:39.938Z,37.55
2018-07-25T12:04:15.517Z,37.89
2018-07-25T12:19:00.859Z,36.73
2018-07-25T12:21:30.639Z,36.98
2018-07-25T12:24:00.487Z,36.49
2018-07-25T12:35:38.491Z,36.00
2018-07-25T12:38:07.927Z,35.73
2018-07-25T12:40:37.298Z,35.68
2018-07-25T12:52:14.854Z,35.28
2018-07-25T12:54:44.018Z,35.37
2018-07-25T12:57:13.226Z,35.57
2018-07-25T13:08:50.262Z,35.21
2018-07-25T13:11:19.237Z,34.95
2018-07-25T13:13:48.414Z,34.84
2018-07-25T13:16:18.919Z,34.45
2018-07-25T13:27:55.418Z,34.67
2018-07-25T13:30:24.350Z,34.38
2018-07-25T13:32:53.648Z,34.48
2018-07-25T13:44:37.659Z,33.55
2018-07-25T13:47:19.838Z,34.17
2018-07-25T13:49:49.284Z,33.88
2018-07-25T14:01:27.067Z,33.95
2018-07-25T14:03:56.566Z,33.83
2018-07-25T14:06:25.846Z,33.52
2018-07-25T14:21:04.504Z,33.33
2018-07-25T14:23:33.875Z,32.80
2018-07-25T14:37:56.238Z,32.63
2018-07-25T14:40:25.853Z,31.66
2018-07-25T14:42:55.990Z,31.84
2018-07-25T14:54:32.731Z,32.09
2018-07-25T14:57:02.787Z,31.84
2018-07-25T14:59:32.482Z,31.25
2018-07-25T15:11:09.294Z,31.08
2018-07-25T15:13:38.428Z,30.68
2018-07-25T15:16:07.574Z,30.66
2018-07-25T15:30:48.040Z,30.97
2018-07-25T15:33:21.171Z,31.04
2018-07-25T15:35:50.327Z,30.84
2018-07-25T15:47:31.111Z,30.73
2018-07-25T15:50:01.526Z,31.12
2018-07-25T15:52:31.577Z,30.56
2018-07-25T15:55:01.147Z,30.48
2018-07-25T16:06:39.803Z,28.93
2018-07-25T16:09:10.610Z,28.14
2018-07-25T16:11:40.435Z,27.69
2018-07-25T16:23:40.289Z,27.88
2018-07-25T16:26:09.298Z,27.37
2018-07-25T16:28:38.426Z,27.07
2018-07-25T16:31:08.683Z,26.52
2018-07-25T16:42:49.172Z,26.12
2018-07-25T16:45:18.119Z,25.84
2018-07-25T16:47:47.266Z,26.07
2018-07-25T16:50:17.190Z,25.97
2018-07-25T17:01:55.714Z,26.19
2018-07-25T17:04:24.654Z,25.67
2018-07-25T17:06:58.913Z,26.02
2018-07-25T17:24:30.839Z,26.27
2018-07-25T17:26:59.946Z,26.67
2018-07-25T17:29:29.157Z,26.37
2018-07-25T17:41:07.225Z,28.06
2018-07-25T17:43:36.591Z,27.42
2018-07-25T17:46:05.615Z,28.47
2018-07-25T17:48:34.828Z,27.86
2018-07-25T18:03:16.116Z,29.18
2018-07-25T18:05:45.098Z,28.52
2018-07-25T18:08:14.135Z,28.64
2018-07-25T18:25:57.799Z,29.22
2018-07-25T18:28:26.812Z,29.59
2018-07-25T18:30:55.868Z,29.28
2018-07-25T18:45:26.293Z,31.35
2018-07-25T18:47:55.330Z,31.23
2018-07-25T18:50:25.206Z,31.35
2018-07-25T19:08:08.778Z,34.48
2018-07-25T19:10:37.742Z,35.12
2018-07-25T19:13:12.132Z,35.92
2018-07-25T19:30:43.831Z,40.09
2018-07-25T19:33:13.445Z,40.86
2018-07-25T19:47:43.390Z,43.16
2018-07-25T19:50:12.303Z,43.05
2018-07-25T19:52:41.284Z,43.16
2018-07-25T20:04:17.551Z,43.92
2018-07-25T20:06:46.470Z,44.79
2018-07-25T20:09:15.391Z,44.36
2018-07-25T20:20:55.162Z,45.22
2018-07-25T20:23:24.105Z,46.13
2018-07-25T20:25:53.077Z,46.50
2018-07-25T20:28:22.189Z,46.52
2018-07-25T20:39:59.292Z,47.27
2018-07-25T20:42:28.647Z,47.39
2018-07-25T20:44:57.967Z,48.34
2018-07-25T20:56:34.703Z,48.98
2018-07-25T20:59:03.724Z,48.94
2018-07-25T21:01:32.691Z,48.88
2018-07-25T21:04:08.371Z,49.69
2018-07-25T21:09:51.366Z,49.39
2018-07-25T21:12:40.248Z,50.11
2018-07-25T21:15:09.478Z,50.62
2018-07-25T21:17:38.438Z,50.97
2018-07-25T21:20:07.429Z,50.51
2018-07-25T21:22:36.470Z,50.40
2018-07-25T21:25:24.722Z,50.92
2018-07-25T21:28:00.482Z,51.66
2018-07-25T21:30:37.163Z,51.35
2018-07-25T21:33:17.049Z,52.00
2018-07-25T21:35:45.937Z,52.13
2018-07-25T21:38:14.867Z,52.28
2018-07-25T21:40:43.805Z,52.17
2018-07-25T21:43:20.437Z,51.69
2018-07-25T21:45:56.223Z,52.27
2018-07-25T21:48:29.569Z,51.78
2018-07-25T21:51:07.880Z,52.11
2018-07-25T21:53:44.691Z,52.12
2018-07-25T21:56:13.597Z,51.95
2018-07-25T21:58:42.521Z,52.31
2018-07-25T22:01:17.660Z,52.13
2018-07-25T22:03:51.555Z,52.05
2018-07-25T22:06:25.552Z,52.40
2018-07-25T22:09:00.387Z,52.40
2018-07-25T22:11:39.477Z,53.12
2018-07-25T22:14:15.483Z,53.00
2018-07-25T22:16:44.346Z,53.23
2018-07-25T22:19:13.202Z,53.32
2018-07-25T22:21:42.166Z,53.71
2018-07-25T22:24:15.480Z,53.71
2018-07-25T22:29:28.572Z,54.31
2018-07-25T22:32:07.418Z,54.35
2018-07-25T22:34:40.069Z,54.71
2018-07-25T22:37:09.134Z,55.11
2018-07-25T22:39:38.191Z,55.22
2018-07-25T22:42:08.646Z,55.36
2018-07-25T22:47:23.214Z,55.61
2018-07-25T22:50:00.970Z,55.92
2018-07-25T22:52:36.355Z,56.03
2018-07-25T22:55:17.182Z,55.90
2018-07-25T22:57:46.279Z,56.47
2018-07-25T23:00:15.122Z,56.47
2018-07-25T23:02:44.143Z,56.89
2018-07-25T23:05:20.288Z,57.20
2018-07-25T23:07:59.685Z,57.39
2018-07-25T23:10:32.698Z,57.54
2018-07-25T23:13:08.550Z,57.96
2018-07-25T23:15:43.280Z,57.91
2018-07-25T23:18:20.373Z,58.20
2018-07-25T23:20:50.488Z,58.19
2018-07-25T23:23:20.050Z,58.30
2018-07-25T23:25:49.095Z,58.41
2018-07-25T23:28:24.445Z,58.33
2018-07-25T23:31:04.167Z,58.32
2018-07-25T23:33:36.233Z,58.29
2018-07-25T23:36:12.346Z,58.69
2018-07-25T23:38:47.686Z,58.69
2018-07-25T23:41:16.530Z,58.71
2018-07-25T23:43:45.317Z,58.60
2018-07-25T23:46:15.026Z,58.72
2018-07-25T23:48:45.600Z,58.60
2018-07-25T23:51:17.050Z,58.58
2018-07-25T23:53:48.392Z,58.45
2018-07-25T23:56:32.962Z,58.71
2018-07-25T23:59:01.971Z,58.57
